sensor_id;sensor_type;location;lat;lon;timestamp;P1;durP1;ratioP1;P2;durP2;ratioP2
8652;SDS011;4364;52.426;9.424;2024-03-08T00:02:12;29.77;;;17.10;;
8652;SDS011;4364;52.426;9.424;2024-03-08T00:04:39;31.00;;;16.97;;
8652;SDS011;4364;52.426;9.424;2024-03-08T00:07:06;30.17;;;17.70;;
8652;SDS011;4364;52.426;9.424;2024-03-08T00:09:33;29.07;;;18.13;;
8652;SDS011;4364;52.426;9.424;2024-03-08T00:11:59;32.40;;;17.40;;
8652;SDS011;4364;52.426;9.424;2024-03-08T00:14:26;32.30;;;18.23;;
8652;SDS011;4364;52.426;9.424;2024-03-08T00:16:53;30.00;;;17.03;;
8652;SDS011;4364;52.426;9.424;2024-03-08T00:19:20;30.87;;;17.00;;
8652;SDS011;4364;52.426;9.424;2024-03-08T00:21:47;30.63;;;16.53;;
8652;SDS011;4364;52.426;9.424;2024-03-08T00:24:13;28.40;;;16.47;;
8652;SDS011;4364;52.426;9.424;2024-03-08T00:26:40;29.77;;;17.27;;
8652;SDS011;4364;52.426;9.424;2024-03-08T00:29:08;31.47;;;17.80;;
8652;SDS011;4364;52.426;9.424;2024-03-08T00:31:34;27.87;;;16.67;;
8652;SDS011;4364;52.426;9.424;2024-03-08T00:34:01;33.00;;;17.60;;
8652;SDS011;4364;52.426;9.424;2024-03-08T00:36:28;31.43;;;18.10;;
8652;SDS011;4364;52.426;9.424;2024-03-08T00:38:56;28.97;;;17.60;;
8652;SDS011;4364;52.426;9.424;2024-03-08T00:41:22;29.70;;;17.17;;
8652;SDS011;4364;52.426;9.424;2024-03-08T00:43:49;32.87;;;17.73;;
8652;SDS011;4364;52.426;9.424;2024-03-08T00:46:15;32.10;;;17.57;;
8652;SDS011;4364;52.426;9.424;2024-03-08T00:48:42;28.57;;;17.43;;
8652;SDS011;4364;52.426;9.424;2024-03-08T00:51:10;30.70;;;18.07;;
8652;SDS011;4364;52.426;9.424;2024-03-08T00:53:36;31.03;;;17.00;;
8652;SDS011;4364;52.426;9.424;2024-03-08T00:56:03;32.57;;;17.60;;
8652;SDS011;4364;52.426;9.424;2024-03-08T00:58:30;30.47;;;17.93;;
8652;SDS011;4364;52.426;9.424;2024-03-08T01:00:57;29.47;;;18.00;;
8652;SDS011;4364;52.426;9.424;2024-03-08T01:03:24;31.03;;;17.73;;
8652;SDS011;4364;52.426;9.424;2024-03-08T01:05:50;32.17;;;18.13;;
8652;SDS011;4364;52.426;9.424;2024-03-08T01:08:17;33.20;;;17.80;;
8652;SDS011;4364;52.426;9.424;2024-03-08T01:10:45;29.43;;;17.57;;
8652;SDS011;4364;52.426;9.424;2024-03-08T01:13:11;31.53;;;17.80;;
8652;SDS011;4364;52.426;9.424;2024-03-08T01:15:38;30.13;;;17.93;;
8652;SDS011;4364;52.426;9.424;2024-03-08T01:18:07;31.33;;;17.60;;
8652;SDS011;4364;52.426;9.424;2024-03-08T01:20:34;30.97;;;17.47;;
8652;SDS011;4364;52.426;9.424;2024-03-08T01:23:01;35.07;;;17.53;;
8652;SDS011;4364;52.426;9.424;2024-03-08T01:25:27;31.90;;;17.10;;
8652;SDS011;4364;52.426;9.424;2024-03-08T01:27:54;30.80;;;18.03;;
8652;SDS011;4364;52.426;9.424;2024-03-08T01:30:20;31.97;;;16.93;;
8652;SDS011;4364;52.426;9.424;2024-03-08T01:32:47;35.73;;;17.77;;
8652;SDS011;4364;52.426;9.424;2024-03-08T01:35:14;32.10;;;17.60;;
8652;SDS011;4364;52.426;9.424;2024-03-08T01:37:40;34.30;;;18.77;;
8652;SDS011;4364;52.426;9.424;2024-03-08T01:40:07;33.97;;;18.47;;
8652;SDS011;4364;52.426;9.424;2024-03-08T01:42:35;32.10;;;18.13;;
8652;SDS011;4364;52.426;9.424;2024-03-08T01:45:05;31.00;;;17.97;;
8652;SDS011;4364;52.426;9.424;2024-03-08T01:47:32;30.90;;;17.60;;
8652;SDS011;4364;52.426;9.424;2024-03-08T01:50:02;35.17;;;17.33;;
8652;SDS011;4364;52.426;9.424;2024-03-08T01:52:29;37.17;;;18.40;;
8652;SDS011;4364;52.426;9.424;2024-03-08T01:55:01;37.27;;;18.03;;
8652;SDS011;4364;52.426;9.424;2024-03-08T01:57:30;33.63;;;18.07;;
8652;SDS011;4364;52.426;9.424;2024-03-08T01:59:57;31.80;;;18.40;;
8652;SDS011;4364;52.426;9.424;2024-03-08T02:02:24;32.80;;;18.33;;
8652;SDS011;4364;52.426;9.424;2024-03-08T02:04:51;31.83;;;17.70;;
8652;SDS011;4364;52.426;9.424;2024-03-08T02:07:19;34.57;;;17.90;;
8652;SDS011;4364;52.426;9.424;2024-03-08T02:09:46;30.20;;;18.07;;
8652;SDS011;4364;52.426;9.424;2024-03-08T02:12:12;33.63;;;17.83;;
8652;SDS011;4364;52.426;9.424;2024-03-08T02:14:40;37.73;;;19.17;;
8652;SDS011;4364;52.426;9.424;2024-03-08T02:17:06;31.07;;;17.33;;
8652;SDS011;4364;52.426;9.424;2024-03-08T02:19:34;32.20;;;17.47;;
8652;SDS011;4364;52.426;9.424;2024-03-08T02:22:02;29.77;;;16.87;;
8652;SDS011;4364;52.426;9.424;2024-03-08T02:24:31;31.57;;;17.93;;
8652;SDS011;4364;52.426;9.424;2024-03-08T02:26:58;31.73;;;17.47;;
8652;SDS011;4364;52.426;9.424;2024-03-08T02:29:25;32.07;;;18.70;;
8652;SDS011;4364;52.426;9.424;2024-03-08T02:31:52;30.90;;;18.10;;
8652;SDS011;4364;52.426;9.424;2024-03-08T02:34:18;35.73;;;18.63;;
8652;SDS011;4364;52.426;9.424;2024-03-08T02:36:46;32.20;;;18.30;;
8652;SDS011;4364;52.426;9.424;2024-03-08T02:39:13;30.40;;;17.53;;
8652;SDS011;4364;52.426;9.424;2024-03-08T02:41:40;32.87;;;18.23;;
8652;SDS011;4364;52.426;9.424;2024-03-08T02:44:06;35.33;;;18.80;;
8652;SDS011;4364;52.426;9.424;2024-03-08T02:46:33;29.60;;;16.80;;
8652;SDS011;4364;52.426;9.424;2024-03-08T02:49:02;31.83;;;17.80;;
8652;SDS011;4364;52.426;9.424;2024-03-08T02:51:28;33.47;;;18.30;;
8652;SDS011;4364;52.426;9.424;2024-03-08T02:53:55;33.77;;;18.60;;
8652;SDS011;4364;52.426;9.424;2024-03-08T02:56:22;34.23;;;17.17;;
8652;SDS011;4364;52.426;9.424;2024-03-08T02:58:49;32.20;;;18.57;;
8652;SDS011;4364;52.426;9.424;2024-03-08T03:01:15;32.10;;;17.37;;
8652;SDS011;4364;52.426;9.424;2024-03-08T03:03:42;29.90;;;17.43;;
8652;SDS011;4364;52.426;9.424;2024-03-08T03:06:09;34.50;;;18.73;;
8652;SDS011;4364;52.426;9.424;2024-03-08T03:08:36;30.60;;;17.10;;
8652;SDS011;4364;52.426;9.424;2024-03-08T03:11:02;33.67;;;18.40;;
8652;SDS011;4364;52.426;9.424;2024-03-08T03:13:29;34.63;;;18.90;;
8652;SDS011;4364;52.426;9.424;2024-03-08T03:15:56;36.90;;;17.97;;
8652;SDS011;4364;52.426;9.424;2024-03-08T03:18:24;34.17;;;17.97;;
8652;SDS011;4364;52.426;9.424;2024-03-08T03:20:52;34.37;;;17.03;;
8652;SDS011;4364;52.426;9.424;2024-03-08T03:23:18;29.30;;;16.27;;
8652;SDS011;4364;52.426;9.424;2024-03-08T03:25:47;32.90;;;17.23;;
8652;SDS011;4364;52.426;9.424;2024-03-08T03:28:13;39.07;;;18.97;;
8652;SDS011;4364;52.426;9.424;2024-03-08T03:30:46;35.03;;;17.93;;
8652;SDS011;4364;52.426;9.424;2024-03-08T03:33:13;36.13;;;18.70;;
8652;SDS011;4364;52.426;9.424;2024-03-08T03:35:41;31.47;;;17.90;;
8652;SDS011;4364;52.426;9.424;2024-03-08T03:38:10;36.67;;;18.13;;
8652;SDS011;4364;52.426;9.424;2024-03-08T03:40:38;32.60;;;17.20;;
8652;SDS011;4364;52.426;9.424;2024-03-08T03:43:06;32.67;;;18.20;;
8652;SDS011;4364;52.426;9.424;2024-03-08T03:45:34;32.00;;;17.13;;
8652;SDS011;4364;52.426;9.424;2024-03-08T03:48:06;34.27;;;18.50;;
8652;SDS011;4364;52.426;9.424;2024-03-08T03:50:36;33.70;;;17.70;;
8652;SDS011;4364;52.426;9.424;2024-03-08T03:53:03;34.50;;;18.47;;
8652;SDS011;4364;52.426;9.424;2024-03-08T03:55:35;32.40;;;17.93;;
8652;SDS011;4364;52.426;9.424;2024-03-08T03:58:07;33.73;;;17.53;;
8652;SDS011;4364;52.426;9.424;2024-03-08T04:00:36;37.63;;;18.57;;
8652;SDS011;4364;52.426;9.424;2024-03-08T04:03:02;36.20;;;19.13;;
8652;SDS011;4364;52.426;9.424;2024-03-08T04:05:29;32.53;;;17.57;;
8652;SDS011;4364;52.426;9.424;2024-03-08T04:07:57;34.07;;;18.47;;
8652;SDS011;4364;52.426;9.424;2024-03-08T04:10:23;35.33;;;18.50;;
8652;SDS011;4364;52.426;9.424;2024-03-08T04:12:50;34.23;;;17.90;;
8652;SDS011;4364;52.426;9.424;2024-03-08T04:15:17;34.33;;;18.83;;
8652;SDS011;4364;52.426;9.424;2024-03-08T04:17:43;36.20;;;18.80;;
8652;SDS011;4364;52.426;9.424;2024-03-08T04:20:12;33.03;;;17.23;;
8652;SDS011;4364;52.426;9.424;2024-03-08T04:22:40;32.77;;;17.20;;
8652;SDS011;4364;52.426;9.424;2024-03-08T04:25:07;32.00;;;17.67;;
8652;SDS011;4364;52.426;9.424;2024-03-08T04:27:35;31.27;;;16.80;;
8652;SDS011;4364;52.426;9.424;2024-03-08T04:30:02;33.57;;;17.60;;
8652;SDS011;4364;52.426;9.424;2024-03-08T04:32:29;36.00;;;17.97;;
8652;SDS011;4364;52.426;9.424;2024-03-08T04:34:58;36.37;;;18.17;;
8652;SDS011;4364;52.426;9.424;2024-03-08T04:37:29;33.07;;;17.37;;
8652;SDS011;4364;52.426;9.424;2024-03-08T04:39:58;34.63;;;18.47;;
8652;SDS011;4364;52.426;9.424;2024-03-08T04:42:26;38.10;;;18.80;;
8652;SDS011;4364;52.426;9.424;2024-03-08T04:44:55;37.70;;;19.03;;
8652;SDS011;4364;52.426;9.424;2024-03-08T04:47:22;34.00;;;18.57;;
8652;SDS011;4364;52.426;9.424;2024-03-08T04:49:48;37.17;;;18.43;;
8652;SDS011;4364;52.426;9.424;2024-03-08T04:52:16;36.03;;;18.60;;
8652;SDS011;4364;52.426;9.424;2024-03-08T04:54:43;37.40;;;19.10;;
8652;SDS011;4364;52.426;9.424;2024-03-08T04:57:10;38.90;;;19.27;;
8652;SDS011;4364;52.426;9.424;2024-03-08T04:59:37;36.60;;;19.27;;
8652;SDS011;4364;52.426;9.424;2024-03-08T05:02:04;35.80;;;19.10;;
8652;SDS011;4364;52.426;9.424;2024-03-08T05:04:31;32.67;;;18.67;;
8652;SDS011;4364;52.426;9.424;2024-03-08T05:06:57;38.23;;;19.23;;
8652;SDS011;4364;52.426;9.424;2024-03-08T05:09:27;40.63;;;19.17;;
8652;SDS011;4364;52.426;9.424;2024-03-08T05:11:55;32.70;;;18.40;;
8652;SDS011;4364;52.426;9.424;2024-03-08T05:14:22;39.90;;;19.50;;
8652;SDS011;4364;52.426;9.424;2024-03-08T05:16:51;35.90;;;19.67;;
8652;SDS011;4364;52.426;9.424;2024-03-08T05:19:18;36.43;;;19.13;;
8652;SDS011;4364;52.426;9.424;2024-03-08T05:21:45;33.23;;;19.03;;
8652;SDS011;4364;52.426;9.424;2024-03-08T05:24:13;37.50;;;19.37;;
8652;SDS011;4364;52.426;9.424;2024-03-08T05:26:44;35.00;;;18.83;;
8652;SDS011;4364;52.426;9.424;2024-03-08T05:29:11;36.63;;;18.90;;
8652;SDS011;4364;52.426;9.424;2024-03-08T05:31:43;36.50;;;18.60;;
8652;SDS011;4364;52.426;9.424;2024-03-08T05:34:13;36.60;;;19.13;;
8652;SDS011;4364;52.426;9.424;2024-03-08T05:36:41;37.23;;;19.13;;
8652;SDS011;4364;52.426;9.424;2024-03-08T05:39:11;40.10;;;20.10;;
8652;SDS011;4364;52.426;9.424;2024-03-08T05:41:40;38.73;;;19.67;;
8652;SDS011;4364;52.426;9.424;2024-03-08T05:44:07;39.20;;;20.03;;
8652;SDS011;4364;52.426;9.424;2024-03-08T05:46:34;39.43;;;20.67;;
8652;SDS011;4364;52.426;9.424;2024-03-08T05:49:05;40.03;;;19.57;;
8652;SDS011;4364;52.426;9.424;2024-03-08T05:51:33;41.33;;;20.93;;
8652;SDS011;4364;52.426;9.424;2024-03-08T05:54:06;37.03;;;19.63;;
8652;SDS011;4364;52.426;9.424;2024-03-08T05:56:37;37.30;;;20.17;;
8652;SDS011;4364;52.426;9.424;2024-03-08T05:59:05;39.27;;;20.83;;
8652;SDS011;4364;52.426;9.424;2024-03-08T06:01:31;39.93;;;20.77;;
8652;SDS011;4364;52.426;9.424;2024-03-08T06:03:58;39.70;;;20.10;;
8652;SDS011;4364;52.426;9.424;2024-03-08T06:06:25;40.50;;;20.43;;
8652;SDS011;4364;52.426;9.424;2024-03-08T06:08:52;36.47;;;20.13;;
8652;SDS011;4364;52.426;9.424;2024-03-08T06:11:19;38.43;;;19.77;;
8652;SDS011;4364;52.426;9.424;2024-03-08T06:13:47;41.53;;;21.10;;
8652;SDS011;4364;52.426;9.424;2024-03-08T06:16:13;39.77;;;19.83;;
8652;SDS011;4364;52.426;9.424;2024-03-08T06:18:40;38.53;;;21.63;;
8652;SDS011;4364;52.426;9.424;2024-03-08T06:21:08;46.33;;;22.83;;
8652;SDS011;4364;52.426;9.424;2024-03-08T06:23:39;41.30;;;21.77;;
8652;SDS011;4364;52.426;9.424;2024-03-08T06:26:06;38.70;;;20.70;;
8652;SDS011;4364;52.426;9.424;2024-03-08T06:28:32;44.73;;;21.27;;
8652;SDS011;4364;52.426;9.424;2024-03-08T06:31:01;43.47;;;22.53;;
8652;SDS011;4364;52.426;9.424;2024-03-08T06:33:29;44.07;;;23.13;;
8652;SDS011;4364;52.426;9.424;2024-03-08T06:35:57;44.97;;;23.23;;
8652;SDS011;4364;52.426;9.424;2024-03-08T06:38:24;40.53;;;22.33;;
8652;SDS011;4364;52.426;9.424;2024-03-08T06:40:51;42.57;;;22.80;;
8652;SDS011;4364;52.426;9.424;2024-03-08T06:43:19;41.33;;;22.70;;
8652;SDS011;4364;52.426;9.424;2024-03-08T06:45:46;44.30;;;23.07;;
8652;SDS011;4364;52.426;9.424;2024-03-08T06:48:17;44.07;;;23.33;;
8652;SDS011;4364;52.426;9.424;2024-03-08T06:50:44;42.13;;;22.57;;
8652;SDS011;4364;52.426;9.424;2024-03-08T06:53:12;39.03;;;22.43;;
8652;SDS011;4364;52.426;9.424;2024-03-08T06:55:40;41.17;;;23.10;;
8652;SDS011;4364;52.426;9.424;2024-03-08T06:58:06;40.80;;;23.73;;
8652;SDS011;4364;52.426;9.424;2024-03-08T07:00:33;41.87;;;23.33;;
8652;SDS011;4364;52.426;9.424;2024-03-08T07:03:00;42.83;;;22.90;;
8652;SDS011;4364;52.426;9.424;2024-03-08T07:05:30;46.07;;;24.07;;
8652;SDS011;4364;52.426;9.424;2024-03-08T07:07:57;43.30;;;23.60;;
8652;SDS011;4364;52.426;9.424;2024-03-08T07:10:24;45.63;;;24.47;;
8652;SDS011;4364;52.426;9.424;2024-03-08T07:12:51;45.80;;;24.37;;
8652;SDS011;4364;52.426;9.424;2024-03-08T07:15:19;44.23;;;23.30;;
8652;SDS011;4364;52.426;9.424;2024-03-08T07:17:46;40.10;;;22.77;;
8652;SDS011;4364;52.426;9.424;2024-03-08T07:20:13;43.47;;;25.03;;
8652;SDS011;4364;52.426;9.424;2024-03-08T07:22:42;41.87;;;23.33;;
8652;SDS011;4364;52.426;9.424;2024-03-08T07:25:12;44.93;;;24.63;;
8652;SDS011;4364;52.426;9.424;2024-03-08T07:27:49;43.77;;;24.33;;
8652;SDS011;4364;52.426;9.424;2024-03-08T07:30:18;44.10;;;24.23;;
8652;SDS011;4364;52.426;9.424;2024-03-08T07:33:03;46.30;;;24.43;;
8652;SDS011;4364;52.426;9.424;2024-03-08T07:35:31;43.83;;;24.23;;
8652;SDS011;4364;52.426;9.424;2024-03-08T07:37:57;46.63;;;24.73;;
8652;SDS011;4364;52.426;9.424;2024-03-08T07:40:26;44.90;;;25.17;;
8652;SDS011;4364;52.426;9.424;2024-03-08T07:42:52;41.53;;;23.53;;
8652;SDS011;4364;52.426;9.424;2024-03-08T07:45:19;44.10;;;24.60;;
8652;SDS011;4364;52.426;9.424;2024-03-08T07:47:45;45.53;;;26.00;;
8652;SDS011;4364;52.426;9.424;2024-03-08T07:50:12;49.17;;;25.23;;
8652;SDS011;4364;52.426;9.424;2024-03-08T07:52:42;46.67;;;25.93;;
8652;SDS011;4364;52.426;9.424;2024-03-08T07:55:09;46.83;;;25.87;;
8652;SDS011;4364;52.426;9.424;2024-03-08T07:57:38;42.67;;;24.37;;
8652;SDS011;4364;52.426;9.424;2024-03-08T08:00:05;48.77;;;26.27;;
8652;SDS011;4364;52.426;9.424;2024-03-08T08:02:35;44.87;;;25.73;;
8652;SDS011;4364;52.426;9.424;2024-03-08T08:05:05;46.40;;;24.83;;
8652;SDS011;4364;52.426;9.424;2024-03-08T08:07:32;45.90;;;26.13;;
8652;SDS011;4364;52.426;9.424;2024-03-08T08:09:59;45.23;;;25.10;;
8652;SDS011;4364;52.426;9.424;2024-03-08T08:12:25;45.77;;;25.90;;
8652;SDS011;4364;52.426;9.424;2024-03-08T08:14:54;46.20;;;26.53;;
8652;SDS011;4364;52.426;9.424;2024-03-08T08:17:21;45.53;;;26.90;;
8652;SDS011;4364;52.426;9.424;2024-03-08T08:19:48;42.90;;;26.17;;
8652;SDS011;4364;52.426;9.424;2024-03-08T08:22:14;42.47;;;25.23;;
8652;SDS011;4364;52.426;9.424;2024-03-08T08:24:41;46.13;;;25.37;;
8652;SDS011;4364;52.426;9.424;2024-03-08T08:27:07;42.50;;;24.80;;
8652;SDS011;4364;52.426;9.424;2024-03-08T08:29:35;44.07;;;25.90;;
8652;SDS011;4364;52.426;9.424;2024-03-08T08:32:02;46.27;;;25.30;;
8652;SDS011;4364;52.426;9.424;2024-03-08T08:34:29;46.83;;;26.87;;
8652;SDS011;4364;52.426;9.424;2024-03-08T08:36:56;45.07;;;25.30;;
8652;SDS011;4364;52.426;9.424;2024-03-08T08:39:22;40.67;;;24.63;;
8652;SDS011;4364;52.426;9.424;2024-03-08T08:41:50;42.07;;;24.70;;
8652;SDS011;4364;52.426;9.424;2024-03-08T08:44:18;45.07;;;25.67;;
8652;SDS011;4364;52.426;9.424;2024-03-08T08:46:45;41.77;;;25.80;;
8652;SDS011;4364;52.426;9.424;2024-03-08T08:49:11;41.60;;;24.63;;
8652;SDS011;4364;52.426;9.424;2024-03-08T08:51:41;41.43;;;24.20;;
8652;SDS011;4364;52.426;9.424;2024-03-08T08:54:07;41.47;;;24.70;;
8652;SDS011;4364;52.426;9.424;2024-03-08T08:56:37;44.03;;;24.53;;
8652;SDS011;4364;52.426;9.424;2024-03-08T08:59:04;42.40;;;26.17;;
8652;SDS011;4364;52.426;9.424;2024-03-08T09:01:31;41.70;;;24.37;;
8652;SDS011;4364;52.426;9.424;2024-03-08T09:03:58;37.13;;;22.83;;
8652;SDS011;4364;52.426;9.424;2024-03-08T09:06:24;41.53;;;24.10;;
8652;SDS011;4364;52.426;9.424;2024-03-08T09:08:52;40.43;;;24.03;;
8652;SDS011;4364;52.426;9.424;2024-03-08T09:11:19;41.00;;;23.37;;
8652;SDS011;4364;52.426;9.424;2024-03-08T09:13:45;39.40;;;23.93;;
8652;SDS011;4364;52.426;9.424;2024-03-08T09:16:12;37.90;;;23.67;;
8652;SDS011;4364;52.426;9.424;2024-03-08T09:18:39;40.40;;;23.03;;
8652;SDS011;4364;52.426;9.424;2024-03-08T09:21:06;39.13;;;24.27;;
8652;SDS011;4364;52.426;9.424;2024-03-08T09:23:36;42.73;;;24.63;;
8652;SDS011;4364;52.426;9.424;2024-03-08T09:26:03;37.27;;;23.40;;
8652;SDS011;4364;52.426;9.424;2024-03-08T09:28:35;39.90;;;24.07;;
8652;SDS011;4364;52.426;9.424;2024-03-08T09:31:02;38.33;;;24.00;;
8652;SDS011;4364;52.426;9.424;2024-03-08T09:33:31;37.27;;;22.60;;
8652;SDS011;4364;52.426;9.424;2024-03-08T09:36:01;36.80;;;22.30;;
8652;SDS011;4364;52.426;9.424;2024-03-08T09:38:29;39.20;;;23.83;;
8652;SDS011;4364;52.426;9.424;2024-03-08T09:40:56;40.43;;;23.37;;
8652;SDS011;4364;52.426;9.424;2024-03-08T09:43:23;38.83;;;23.73;;
8652;SDS011;4364;52.426;9.424;2024-03-08T09:45:50;38.73;;;23.27;;
8652;SDS011;4364;52.426;9.424;2024-03-08T09:48:17;38.80;;;23.57;;
8652;SDS011;4364;52.426;9.424;2024-03-08T09:50:45;39.43;;;23.93;;
8652;SDS011;4364;52.426;9.424;2024-03-08T09:53:12;38.20;;;24.17;;
8652;SDS011;4364;52.426;9.424;2024-03-08T09:55:38;36.73;;;23.00;;
8652;SDS011;4364;52.426;9.424;2024-03-08T09:58:14;40.73;;;24.63;;
8652;SDS011;4364;52.426;9.424;2024-03-08T10:00:54;37.20;;;22.97;;
8652;SDS011;4364;52.426;9.424;2024-03-08T10:03:23;37.97;;;22.73;;
8652;SDS011;4364;52.426;9.424;2024-03-08T10:05:52;38.97;;;22.50;;
8652;SDS011;4364;52.426;9.424;2024-03-08T10:08:18;36.47;;;22.87;;
8652;SDS011;4364;52.426;9.424;2024-03-08T10:10:46;34.97;;;23.47;;
8652;SDS011;4364;52.426;9.424;2024-03-08T10:13:13;35.13;;;22.37;;
8652;SDS011;4364;52.426;9.424;2024-03-08T10:15:40;37.60;;;21.90;;
8652;SDS011;4364;52.426;9.424;2024-03-08T10:18:06;32.20;;;21.87;;
8652;SDS011;4364;52.426;9.424;2024-03-08T10:20:33;35.40;;;22.90;;
8652;SDS011;4364;52.426;9.424;2024-03-08T10:23:02;34.50;;;21.90;;
8652;SDS011;4364;52.426;9.424;2024-03-08T10:25:37;35.17;;;21.67;;
8652;SDS011;4364;52.426;9.424;2024-03-08T10:28:04;33.60;;;22.33;;
8652;SDS011;4364;52.426;9.424;2024-03-08T10:30:31;34.57;;;21.97;;
8652;SDS011;4364;52.426;9.424;2024-03-08T10:32:58;35.13;;;22.27;;
8652;SDS011;4364;52.426;9.424;2024-03-08T10:35:25;36.63;;;21.93;;
8652;SDS011;4364;52.426;9.424;2024-03-08T10:37:53;36.07;;;21.93;;
8652;SDS011;4364;52.426;9.424;2024-03-08T10:40:27;34.83;;;22.43;;
8652;SDS011;4364;52.426;9.424;2024-03-08T10:42:55;31.97;;;21.77;;
8652;SDS011;4364;52.426;9.424;2024-03-08T10:45:26;34.17;;;21.43;;
8652;SDS011;4364;52.426;9.424;2024-03-08T10:50:50;30.60;;;20.70;;
8652;SDS011;4364;52.426;9.424;2024-03-08T10:53:19;31.40;;;21.13;;
8652;SDS011;4364;52.426;9.424;2024-03-08T10:55:49;30.33;;;20.73;;
8652;SDS011;4364;52.426;9.424;2024-03-08T10:58:20;31.50;;;20.73;;
8652;SDS011;4364;52.426;9.424;2024-03-08T11:00:48;32.53;;;20.90;;
8652;SDS011;4364;52.426;9.424;2024-03-08T11:06:18;32.03;;;21.83;;
8652;SDS011;4364;52.426;9.424;2024-03-08T11:09:08;31.67;;;21.23;;
8652;SDS011;4364;52.426;9.424;2024-03-08T11:12:11;32.70;;;21.23;;
8652;SDS011;4364;52.426;9.424;2024-03-08T11:14:46;32.70;;;21.43;;
8652;SDS011;4364;52.426;9.424;2024-03-08T11:17:20;30.87;;;19.97;;
8652;SDS011;4364;52.426;9.424;2024-03-08T11:19:48;31.40;;;21.10;;
8652;SDS011;4364;52.426;9.424;2024-03-08T11:22:22;33.87;;;21.93;;
8652;SDS011;4364;52.426;9.424;2024-03-08T11:24:50;33.97;;;21.03;;
8652;SDS011;4364;52.426;9.424;2024-03-08T11:27:16;35.87;;;21.80;;
8652;SDS011;4364;52.426;9.424;2024-03-08T11:29:43;35.53;;;21.13;;
8652;SDS011;4364;52.426;9.424;2024-03-08T11:32:10;29.83;;;20.57;;
8652;SDS011;4364;52.426;9.424;2024-03-08T11:34:42;34.43;;;21.73;;
8652;SDS011;4364;52.426;9.424;2024-03-08T11:37:20;29.97;;;20.53;;
8652;SDS011;4364;52.426;9.424;2024-03-08T11:39:51;30.20;;;20.47;;
8652;SDS011;4364;52.426;9.424;2024-03-08T11:42:30;32.53;;;20.97;;
8652;SDS011;4364;52.426;9.424;2024-03-08T11:44:56;30.47;;;21.13;;
8652;SDS011;4364;52.426;9.424;2024-03-08T11:47:24;31.30;;;21.40;;
8652;SDS011;4364;52.426;9.424;2024-03-08T11:49:52;35.80;;;22.37;;
8652;SDS011;4364;52.426;9.424;2024-03-08T11:52:20;31.07;;;21.83;;
8652;SDS011;4364;52.426;9.424;2024-03-08T11:54:53;31.13;;;21.97;;
8652;SDS011;4364;52.426;9.424;2024-03-08T11:57:23;30.47;;;21.67;;
8652;SDS011;4364;52.426;9.424;2024-03-08T11:59:51;30.23;;;20.87;;
8652;SDS011;4364;52.426;9.424;2024-03-08T12:02:22;30.37;;;20.80;;
8652;SDS011;4364;52.426;9.424;2024-03-08T12:04:56;32.77;;;21.20;;
8652;SDS011;4364;52.426;9.424;2024-03-08T12:07:27;32.70;;;21.90;;
8652;SDS011;4364;52.426;9.424;2024-03-08T12:10:15;36.30;;;23.23;;
8652;SDS011;4364;52.426;9.424;2024-03-08T12:12:48;35.93;;;22.57;;
8652;SDS011;4364;52.426;9.424;2024-03-08T12:15:21;33.00;;;23.30;;
8652;SDS011;4364;52.426;9.424;2024-03-08T12:17:50;33.77;;;21.77;;
8652;SDS011;4364;52.426;9.424;2024-03-08T12:20:21;31.83;;;21.00;;
8652;SDS011;4364;52.426;9.424;2024-03-08T12:22:53;34.03;;;22.40;;
8652;SDS011;4364;52.426;9.424;2024-03-08T12:25:20;32.03;;;22.27;;
8652;SDS011;4364;52.426;9.424;2024-03-08T12:27:47;34.47;;;22.77;;
8652;SDS011;4364;52.426;9.424;2024-03-08T12:30:17;36.27;;;23.57;;
8652;SDS011;4364;52.426;9.424;2024-03-08T12:32:52;36.23;;;23.70;;
8652;SDS011;4364;52.426;9.424;2024-03-08T12:35:21;33.83;;;22.87;;
8652;SDS011;4364;52.426;9.424;2024-03-08T12:37:58;37.63;;;24.57;;
8652;SDS011;4364;52.426;9.424;2024-03-08T12:40:28;31.47;;;22.10;;
8652;SDS011;4364;52.426;9.424;2024-03-08T12:42:56;35.83;;;23.37;;
8652;SDS011;4364;52.426;9.424;2024-03-08T12:45:22;34.93;;;22.37;;
8652;SDS011;4364;52.426;9.424;2024-03-08T12:47:50;32.37;;;20.47;;
8652;SDS011;4364;52.426;9.424;2024-03-08T12:50:18;32.37;;;21.40;;
8652;SDS011;4364;52.426;9.424;2024-03-08T12:52:44;34.37;;;22.73;;
8652;SDS011;4364;52.426;9.424;2024-03-08T12:55:11;34.10;;;21.87;;
8652;SDS011;4364;52.426;9.424;2024-03-08T12:57:38;34.20;;;21.60;;
8652;SDS011;4364;52.426;9.424;2024-03-08T13:00:05;31.40;;;21.60;;
8652;SDS011;4364;52.426;9.424;2024-03-08T13:02:39;34.70;;;22.97;;
8652;SDS011;4364;52.426;9.424;2024-03-08T13:05:06;32.67;;;22.10;;
8652;SDS011;4364;52.426;9.424;2024-03-08T13:07:35;28.30;;;18.30;;
8652;SDS011;4364;52.426;9.424;2024-03-08T13:10:03;27.93;;;17.77;;
8652;SDS011;4364;52.426;9.424;2024-03-08T13:12:30;24.60;;;17.13;;
8652;SDS011;4364;52.426;9.424;2024-03-08T13:14:57;29.97;;;18.10;;
8652;SDS011;4364;52.426;9.424;2024-03-08T13:17:24;27.63;;;18.60;;
8652;SDS011;4364;52.426;9.424;2024-03-08T13:19:50;27.90;;;18.33;;
8652;SDS011;4364;52.426;9.424;2024-03-08T13:22:17;28.23;;;19.03;;
8652;SDS011;4364;52.426;9.424;2024-03-08T13:24:44;28.97;;;19.07;;
8652;SDS011;4364;52.426;9.424;2024-03-08T13:27:11;33.50;;;21.53;;
8652;SDS011;4364;52.426;9.424;2024-03-08T13:29:48;35.20;;;24.23;;
8652;SDS011;4364;52.426;9.424;2024-03-08T13:32:15;34.13;;;23.47;;
8652;SDS011;4364;52.426;9.424;2024-03-08T13:34:45;33.60;;;23.60;;
8652;SDS011;4364;52.426;9.424;2024-03-08T13:37:11;34.57;;;24.47;;
8652;SDS011;4364;52.426;9.424;2024-03-08T13:39:38;34.17;;;23.90;;
8652;SDS011;4364;52.426;9.424;2024-03-08T13:42:10;37.20;;;23.30;;
8652;SDS011;4364;52.426;9.424;2024-03-08T13:44:40;35.90;;;23.13;;
8652;SDS011;4364;52.426;9.424;2024-03-08T13:47:09;34.37;;;22.10;;
8652;SDS011;4364;52.426;9.424;2024-03-08T13:49:38;34.87;;;22.77;;
8652;SDS011;4364;52.426;9.424;2024-03-08T13:52:05;32.57;;;22.13;;
8652;SDS011;4364;52.426;9.424;2024-03-08T13:54:31;36.60;;;23.63;;
8652;SDS011;4364;52.426;9.424;2024-03-08T13:56:58;31.97;;;21.73;;
8652;SDS011;4364;52.426;9.424;2024-03-08T13:59:24;31.07;;;20.83;;
8652;SDS011;4364;52.426;9.424;2024-03-08T14:01:55;29.13;;;21.10;;
8652;SDS011;4364;52.426;9.424;2024-03-08T14:04:23;30.83;;;21.17;;
8652;SDS011;4364;52.426;9.424;2024-03-08T14:06:50;30.30;;;20.63;;
8652;SDS011;4364;52.426;9.424;2024-03-08T14:09:17;28.57;;;20.10;;
8652;SDS011;4364;52.426;9.424;2024-03-08T14:11:45;30.23;;;21.23;;
8652;SDS011;4364;52.426;9.424;2024-03-08T14:14:12;31.83;;;21.10;;
8652;SDS011;4364;52.426;9.424;2024-03-08T14:16:41;26.90;;;19.50;;
8652;SDS011;4364;52.426;9.424;2024-03-08T14:19:08;30.60;;;20.53;;
8652;SDS011;4364;52.426;9.424;2024-03-08T14:21:36;30.90;;;20.33;;
8652;SDS011;4364;52.426;9.424;2024-03-08T14:24:05;29.77;;;20.97;;
8652;SDS011;4364;52.426;9.424;2024-03-08T14:26:33;32.70;;;20.33;;
8652;SDS011;4364;52.426;9.424;2024-03-08T14:29:00;29.33;;;19.33;;
8652;SDS011;4364;52.426;9.424;2024-03-08T14:31:27;27.10;;;19.27;;
8652;SDS011;4364;52.426;9.424;2024-03-08T14:33:54;30.07;;;20.10;;
8652;SDS011;4364;52.426;9.424;2024-03-08T14:36:22;30.60;;;20.13;;
8652;SDS011;4364;52.426;9.424;2024-03-08T14:38:51;30.03;;;20.73;;
8652;SDS011;4364;52.426;9.424;2024-03-08T14:41:18;32.70;;;21.50;;
8652;SDS011;4364;52.426;9.424;2024-03-08T14:43:45;29.17;;;19.83;;
8652;SDS011;4364;52.426;9.424;2024-03-08T14:46:12;30.37;;;20.40;;
8652;SDS011;4364;52.426;9.424;2024-03-08T14:48:46;30.80;;;20.40;;
8652;SDS011;4364;52.426;9.424;2024-03-08T14:51:17;27.70;;;20.27;;
8652;SDS011;4364;52.426;9.424;2024-03-08T14:53:48;28.03;;;19.90;;
8652;SDS011;4364;52.426;9.424;2024-03-08T14:56:15;32.57;;;20.07;;
8652;SDS011;4364;52.426;9.424;2024-03-08T14:58:45;28.97;;;19.97;;
8652;SDS011;4364;52.426;9.424;2024-03-08T15:01:15;31.30;;;19.73;;